sensor_id;sensor_type;location;lat;lon;timestamp;P1;durP1;ratioP1;P2;durP2;ratioP2
29774;SDS011;16676;51.202;6.774;2023-06-04T00:01:06;3.38;;;1.40;;
29774;SDS011;16676;51.202;6.774;2023-06-04T00:05:09;1.58;;;1.27;;
29774;SDS011;16676;51.202;6.774;2023-06-04T00:09:11;2.85;;;1.23;;
29774;SDS011;16676;51.202;6.774;2023-06-04T00:13:13;2.58;;;1.40;;
29774;SDS011;16676;51.202;6.774;2023-06-04T00:17:15;2.15;;;1.20;;
29774;SDS011;16676;51.202;6.774;2023-06-04T00:21:18;1.80;;;1.20;;
29774;SDS011;16676;51.202;6.774;2023-06-04T00:25:20;1.58;;;0.90;;
29774;SDS011;16676;51.202;6.774;2023-06-04T00:29:23;1.75;;;1.20;;
29774;SDS011;16676;51.202;6.774;2023-06-04T00:33:24;3.38;;;1.20;;
29774;SDS011;16676;51.202;6.774;2023-06-04T00:37:28;2.00;;;1.23;;
29774;SDS011;16676;51.202;6.774;2023-06-04T00:41:30;2.45;;;1.40;;
29774;SDS011;16676;51.202;6.774;2023-06-04T00:45:32;1.55;;;1.15;;
29774;SDS011;16676;51.202;6.774;2023-06-04T00:49:34;2.13;;;1.20;;
29774;SDS011;16676;51.202;6.774;2023-06-04T00:53:37;2.50;;;1.23;;
29774;SDS011;16676;51.202;6.774;2023-06-04T00:57:40;2.33;;;1.17;;
29774;SDS011;16676;51.202;6.774;2023-06-04T01:01:42;3.20;;;1.30;;
29774;SDS011;16676;51.202;6.774;2023-06-04T01:05:51;1.23;;;0.93;;
29774;SDS011;16676;51.202;6.774;2023-06-04T01:10:08;1.20;;;0.93;;
29774;SDS011;16676;51.202;6.774;2023-06-04T01:14:11;2.67;;;1.13;;
29774;SDS011;16676;51.202;6.774;2023-06-04T01:18:13;2.88;;;1.20;;
29774;SDS011;16676;51.202;6.774;2023-06-04T01:22:29;2.53;;;1.20;;
29774;SDS011;16676;51.202;6.774;2023-06-04T01:26:38;3.13;;;1.30;;
29774;SDS011;16676;51.202;6.774;2023-06-04T01:30:41;2.30;;;1.00;;
29774;SDS011;16676;51.202;6.774;2023-06-04T01:34:46;1.52;;;1.08;;
29774;SDS011;16676;51.202;6.774;2023-06-04T01:38:48;1.67;;;1.20;;
29774;SDS011;16676;51.202;6.774;2023-06-04T01:42:52;2.08;;;1.25;;
29774;SDS011;16676;51.202;6.774;2023-06-04T01:46:53;2.13;;;1.25;;
29774;SDS011;16676;51.202;6.774;2023-06-04T01:50:55;2.55;;;1.20;;
29774;SDS011;16676;51.202;6.774;2023-06-04T01:54:57;2.03;;;1.35;;
29774;SDS011;16676;51.202;6.774;2023-06-04T01:59:00;1.92;;;1.25;;
29774;SDS011;16676;51.202;6.774;2023-06-04T02:03:02;3.75;;;1.50;;
29774;SDS011;16676;51.202;6.774;2023-06-04T02:07:04;3.28;;;1.40;;
29774;SDS011;16676;51.202;6.774;2023-06-04T02:11:07;2.33;;;1.20;;
29774;SDS011;16676;51.202;6.774;2023-06-04T02:15:10;3.25;;;1.42;;
29774;SDS011;16676;51.202;6.774;2023-06-04T02:19:12;2.75;;;1.63;;
29774;SDS011;16676;51.202;6.774;2023-06-04T02:23:15;1.88;;;1.27;;
29774;SDS011;16676;51.202;6.774;2023-06-04T02:27:18;2.97;;;1.20;;
29774;SDS011;16676;51.202;6.774;2023-06-04T02:31:21;5.32;;;1.35;;
29774;SDS011;16676;51.202;6.774;2023-06-04T02:35:23;2.95;;;1.40;;
29774;SDS011;16676;51.202;6.774;2023-06-04T02:39:25;3.30;;;1.40;;
29774;SDS011;16676;51.202;6.774;2023-06-04T02:43:27;2.47;;;1.30;;
29774;SDS011;16676;51.202;6.774;2023-06-04T02:47:30;4.40;;;1.33;;
29774;SDS011;16676;51.202;6.774;2023-06-04T02:51:32;2.13;;;1.20;;
29774;SDS011;16676;51.202;6.774;2023-06-04T02:55:34;4.18;;;1.30;;
29774;SDS011;16676;51.202;6.774;2023-06-04T02:59:36;1.88;;;1.30;;
29774;SDS011;16676;51.202;6.774;2023-06-04T03:03:39;1.75;;;1.17;;
29774;SDS011;16676;51.202;6.774;2023-06-04T03:07:42;1.83;;;1.08;;
29774;SDS011;16676;51.202;6.774;2023-06-04T03:11:45;2.92;;;1.30;;
29774;SDS011;16676;51.202;6.774;2023-06-04T03:15:47;2.05;;;1.33;;
29774;SDS011;16676;51.202;6.774;2023-06-04T03:19:50;2.75;;;1.42;;
29774;SDS011;16676;51.202;6.774;2023-06-04T03:23:52;2.92;;;1.55;;
29774;SDS011;16676;51.202;6.774;2023-06-04T03:27:54;1.88;;;1.20;;
29774;SDS011;16676;51.202;6.774;2023-06-04T03:31:56;2.30;;;1.40;;
29774;SDS011;16676;51.202;6.774;2023-06-04T03:35:59;3.08;;;1.50;;
29774;SDS011;16676;51.202;6.774;2023-06-04T03:40:02;4.47;;;1.40;;
29774;SDS011;16676;51.202;6.774;2023-06-04T03:44:06;1.63;;;1.10;;
29774;SDS011;16676;51.202;6.774;2023-06-04T03:48:08;1.90;;;1.30;;
29774;SDS011;16676;51.202;6.774;2023-06-04T03:52:11;3.78;;;1.23;;
29774;SDS011;16676;51.202;6.774;2023-06-04T03:56:13;2.85;;;1.40;;
29774;SDS011;16676;51.202;6.774;2023-06-04T04:00:15;1.95;;;1.10;;
29774;SDS011;16676;51.202;6.774;2023-06-04T04:04:17;3.15;;;1.50;;
29774;SDS011;16676;51.202;6.774;2023-06-04T04:08:20;1.55;;;1.20;;
29774;SDS011;16676;51.202;6.774;2023-06-04T04:12:22;1.80;;;1.23;;
29774;SDS011;16676;51.202;6.774;2023-06-04T04:16:24;3.95;;;1.30;;
29774;SDS011;16676;51.202;6.774;2023-06-04T04:20:27;3.10;;;1.38;;
29774;SDS011;16676;51.202;6.774;2023-06-04T04:24:31;2.47;;;1.30;;
29774;SDS011;16676;51.202;6.774;2023-06-04T04:28:34;5.97;;;1.40;;
29774;SDS011;16676;51.202;6.774;2023-06-04T04:32:36;2.67;;;1.42;;
29774;SDS011;16676;51.202;6.774;2023-06-04T04:36:38;1.83;;;1.42;;
29774;SDS011;16676;51.202;6.774;2023-06-04T04:40:42;3.25;;;1.27;;
29774;SDS011;16676;51.202;6.774;2023-06-04T04:44:44;2.17;;;1.20;;
29774;SDS011;16676;51.202;6.774;2023-06-04T04:48:48;2.38;;;1.58;;
29774;SDS011;16676;51.202;6.774;2023-06-04T04:52:50;4.35;;;1.70;;
29774;SDS011;16676;51.202;6.774;2023-06-04T04:56:53;2.80;;;1.42;;
29774;SDS011;16676;51.202;6.774;2023-06-04T05:00:55;1.92;;;1.20;;
29774;SDS011;16676;51.202;6.774;2023-06-04T05:04:57;2.55;;;1.35;;
29774;SDS011;16676;51.202;6.774;2023-06-04T05:08:58;2.92;;;1.58;;
29774;SDS011;16676;51.202;6.774;2023-06-04T05:13:02;2.63;;;1.10;;
29774;SDS011;16676;51.202;6.774;2023-06-04T05:17:05;2.17;;;1.38;;
29774;SDS011;16676;51.202;6.774;2023-06-04T05:21:07;3.85;;;1.50;;
29774;SDS011;16676;51.202;6.774;2023-06-04T05:25:09;2.22;;;1.30;;
29774;SDS011;16676;51.202;6.774;2023-06-04T05:29:12;2.55;;;1.55;;
29774;SDS011;16676;51.202;6.774;2023-06-04T05:33:14;2.72;;;1.10;;
29774;SDS011;16676;51.202;6.774;2023-06-04T05:37:18;1.17;;;0.95;;
29774;SDS011;16676;51.202;6.774;2023-06-04T05:41:21;1.65;;;1.00;;
29774;SDS011;16676;51.202;6.774;2023-06-04T05:45:25;1.63;;;1.17;;
29774;SDS011;16676;51.202;6.774;2023-06-04T05:49:27;2.67;;;1.42;;
29774;SDS011;16676;51.202;6.774;2023-06-04T05:53:29;1.92;;;1.42;;
29774;SDS011;16676;51.202;6.774;2023-06-04T05:57:31;2.00;;;1.40;;
29774;SDS011;16676;51.202;6.774;2023-06-04T06:01:34;6.35;;;1.73;;
29774;SDS011;16676;51.202;6.774;2023-06-04T06:05:36;2.88;;;1.48;;
29774;SDS011;16676;51.202;6.774;2023-06-04T06:09:38;6.40;;;1.48;;
29774;SDS011;16676;51.202;6.774;2023-06-04T06:13:40;2.53;;;1.30;;
29774;SDS011;16676;51.202;6.774;2023-06-04T06:17:43;3.75;;;1.10;;
29774;SDS011;16676;51.202;6.774;2023-06-04T06:21:45;2.13;;;1.23;;
29774;SDS011;16676;51.202;6.774;2023-06-04T06:25:47;2.28;;;1.50;;
29774;SDS011;16676;51.202;6.774;2023-06-04T06:29:52;7.28;;;1.40;;
29774;SDS011;16676;51.202;6.774;2023-06-04T06:33:55;2.00;;;1.20;;
29774;SDS011;16676;51.202;6.774;2023-06-04T06:37:57;2.88;;;1.48;;
29774;SDS011;16676;51.202;6.774;2023-06-04T06:41:58;4.50;;;1.20;;
29774;SDS011;16676;51.202;6.774;2023-06-04T06:46:00;2.25;;;1.33;;
29774;SDS011;16676;51.202;6.774;2023-06-04T06:50:04;1.40;;;1.20;;
29774;SDS011;16676;51.202;6.774;2023-06-04T06:54:08;2.65;;;1.10;;
29774;SDS011;16676;51.202;6.774;2023-06-04T06:58:10;2.20;;;1.40;;
29774;SDS011;16676;51.202;6.774;2023-06-04T07:02:12;2.33;;;1.30;;
29774;SDS011;16676;51.202;6.774;2023-06-04T07:06:15;3.63;;;1.35;;
29774;SDS011;16676;51.202;6.774;2023-06-04T07:10:17;2.33;;;1.40;;
29774;SDS011;16676;51.202;6.774;2023-06-04T07:14:20;1.85;;;1.20;;
29774;SDS011;16676;51.202;6.774;2023-06-04T07:18:22;2.38;;;1.30;;
29774;SDS011;16676;51.202;6.774;2023-06-04T07:22:25;2.17;;;1.60;;
29774;SDS011;16676;51.202;6.774;2023-06-04T07:26:27;3.90;;;1.50;;
29774;SDS011;16676;51.202;6.774;2023-06-04T07:30:30;2.60;;;1.50;;
29774;SDS011;16676;51.202;6.774;2023-06-04T07:34:32;4.03;;;1.60;;
29774;SDS011;16676;51.202;6.774;2023-06-04T07:38:36;3.58;;;1.70;;
29774;SDS011;16676;51.202;6.774;2023-06-04T07:42:38;3.90;;;1.90;;
29774;SDS011;16676;51.202;6.774;2023-06-04T07:46:41;2.90;;;1.33;;
29774;SDS011;16676;51.202;6.774;2023-06-04T07:50:43;6.03;;;2.17;;
29774;SDS011;16676;51.202;6.774;2023-06-04T07:54:46;3.70;;;1.70;;
29774;SDS011;16676;51.202;6.774;2023-06-04T07:58:48;3.30;;;1.55;;
29774;SDS011;16676;51.202;6.774;2023-06-04T08:02:50;5.10;;;1.80;;
29774;SDS011;16676;51.202;6.774;2023-06-04T08:06:52;8.13;;;2.20;;
29774;SDS011;16676;51.202;6.774;2023-06-04T08:10:56;7.82;;;2.30;;
29774;SDS011;16676;51.202;6.774;2023-06-04T08:14:58;7.78;;;1.90;;
29774;SDS011;16676;51.202;6.774;2023-06-04T08:19:00;4.47;;;2.42;;
29774;SDS011;16676;51.202;6.774;2023-06-04T08:23:02;4.13;;;1.90;;
29774;SDS011;16676;51.202;6.774;2023-06-04T08:27:06;3.50;;;1.95;;
29774;SDS011;16676;51.202;6.774;2023-06-04T08:31:08;3.03;;;1.77;;
29774;SDS011;16676;51.202;6.774;2023-06-04T08:35:10;6.30;;;1.90;;
29774;SDS011;16676;51.202;6.774;2023-06-04T08:39:12;5.35;;;1.70;;
29774;SDS011;16676;51.202;6.774;2023-06-04T08:43:15;4.25;;;2.10;;
29774;SDS011;16676;51.202;6.774;2023-06-04T08:47:18;2.63;;;1.58;;
29774;SDS011;16676;51.202;6.774;2023-06-04T08:51:20;4.03;;;2.15;;
29774;SDS011;16676;51.202;6.774;2023-06-04T08:55:22;3.97;;;1.70;;
29774;SDS011;16676;51.202;6.774;2023-06-04T08:59:26;8.60;;;2.00;;
29774;SDS011;16676;51.202;6.774;2023-06-04T09:03:28;4.35;;;1.90;;
29774;SDS011;16676;51.202;6.774;2023-06-04T09:07:33;4.68;;;1.98;;
29774;SDS011;16676;51.202;6.774;2023-06-04T09:11:38;3.92;;;1.80;;
29774;SDS011;16676;51.202;6.774;2023-06-04T09:15:47;2.80;;;1.88;;
29774;SDS011;16676;51.202;6.774;2023-06-04T09:20:00;2.85;;;1.80;;
29774;SDS011;16676;51.202;6.774;2023-06-04T09:24:02;4.10;;;1.73;;
29774;SDS011;16676;51.202;6.774;2023-06-04T09:28:05;5.28;;;1.65;;
29774;SDS011;16676;51.202;6.774;2023-06-04T09:32:09;3.58;;;1.67;;
29774;SDS011;16676;51.202;6.774;2023-06-04T09:36:13;3.50;;;1.70;;
29774;SDS011;16676;51.202;6.774;2023-06-04T09:40:15;4.70;;;1.90;;
29774;SDS011;16676;51.202;6.774;2023-06-04T09:44:17;2.50;;;1.63;;
29774;SDS011;16676;51.202;6.774;2023-06-04T09:48:20;3.65;;;1.63;;
29774;SDS011;16676;51.202;6.774;2023-06-04T09:52:31;7.00;;;1.73;;
29774;SDS011;16676;51.202;6.774;2023-06-04T09:56:39;3.22;;;1.70;;
29774;SDS011;16676;51.202;6.774;2023-06-04T10:00:41;3.83;;;1.70;;
29774;SDS011;16676;51.202;6.774;2023-06-04T10:04:48;5.95;;;1.90;;
29774;SDS011;16676;51.202;6.774;2023-06-04T10:08:54;4.40;;;1.92;;
29774;SDS011;16676;51.202;6.774;2023-06-04T10:13:00;4.90;;;2.03;;
29774;SDS011;16676;51.202;6.774;2023-06-04T10:17:06;5.07;;;1.70;;
29774;SDS011;16676;51.202;6.774;2023-06-04T10:21:11;3.47;;;1.83;;
29774;SDS011;16676;51.202;6.774;2023-06-04T10:25:15;4.68;;;2.15;;
29774;SDS011;16676;51.202;6.774;2023-06-04T10:29:17;7.05;;;2.03;;
29774;SDS011;16676;51.202;6.774;2023-06-04T10:33:20;4.63;;;1.80;;
29774;SDS011;16676;51.202;6.774;2023-06-04T10:37:25;3.72;;;1.90;;
29774;SDS011;16676;51.202;6.774;2023-06-04T10:41:29;3.95;;;1.70;;
29774;SDS011;16676;51.202;6.774;2023-06-04T10:45:32;3.42;;;1.48;;
29774;SDS011;16676;51.202;6.774;2023-06-04T10:49:34;6.40;;;1.90;;
29774;SDS011;16676;51.202;6.774;2023-06-04T10:53:38;7.45;;;1.85;;
29774;SDS011;16676;51.202;6.774;2023-06-04T10:57:40;3.95;;;1.95;;
29774;SDS011;16676;51.202;6.774;2023-06-04T11:02:02;8.23;;;2.05;;
29774;SDS011;16676;51.202;6.774;2023-06-04T11:06:15;7.03;;;1.92;;
29774;SDS011;16676;51.202;6.774;2023-06-04T11:10:19;21.92;;;2.10;;
29774;SDS011;16676;51.202;6.774;2023-06-04T11:14:33;3.90;;;2.03;;
29774;SDS011;16676;51.202;6.774;2023-06-04T11:18:35;5.72;;;2.00;;
29774;SDS011;16676;51.202;6.774;2023-06-04T11:22:37;3.88;;;1.63;;
29774;SDS011;16676;51.202;6.774;2023-06-04T11:26:40;3.45;;;1.98;;
29774;SDS011;16676;51.202;6.774;2023-06-04T11:30:42;5.47;;;1.90;;
29774;SDS011;16676;51.202;6.774;2023-06-04T11:34:44;7.32;;;1.80;;
29774;SDS011;16676;51.202;6.774;2023-06-04T11:38:53;3.08;;;1.70;;
29774;SDS011;16676;51.202;6.774;2023-06-04T11:42:57;2.97;;;1.67;;
29774;SDS011;16676;51.202;6.774;2023-06-04T11:46:59;2.53;;;1.70;;
29774;SDS011;16676;51.202;6.774;2023-06-04T11:51:04;5.80;;;1.75;;
29774;SDS011;16676;51.202;6.774;2023-06-04T11:55:09;4.82;;;1.88;;
29774;SDS011;16676;51.202;6.774;2023-06-04T11:59:13;3.55;;;1.88;;
29774;SDS011;16676;51.202;6.774;2023-06-04T12:03:16;3.50;;;1.95;;
29774;SDS011;16676;51.202;6.774;2023-06-04T12:07:19;3.42;;;1.95;;
29774;SDS011;16676;51.202;6.774;2023-06-04T12:11:24;3.90;;;1.92;;
29774;SDS011;16676;51.202;6.774;2023-06-04T12:15:33;6.45;;;1.90;;
29774;SDS011;16676;51.202;6.774;2023-06-04T12:19:45;4.47;;;1.58;;
29774;SDS011;16676;51.202;6.774;2023-06-04T12:23:47;4.55;;;1.80;;
29774;SDS011;16676;51.202;6.774;2023-06-04T12:27:50;6.00;;;1.67;;
29774;SDS011;16676;51.202;6.774;2023-06-04T12:32:00;3.30;;;1.70;;
29774;SDS011;16676;51.202;6.774;2023-06-04T12:36:03;3.00;;;1.98;;
29774;SDS011;16676;51.202;6.774;2023-06-04T12:40:06;4.65;;;1.90;;
29774;SDS011;16676;51.202;6.774;2023-06-04T12:44:09;1.95;;;1.40;;
29774;SDS011;16676;51.202;6.774;2023-06-04T12:48:12;2.85;;;1.58;;
29774;SDS011;16676;51.202;6.774;2023-06-04T12:52:14;2.40;;;1.60;;
29774;SDS011;16676;51.202;6.774;2023-06-04T12:56:17;2.55;;;1.67;;
29774;SDS011;16676;51.202;6.774;2023-06-04T13:00:19;4.40;;;1.90;;
29774;SDS011;16676;51.202;6.774;2023-06-04T13:04:22;3.45;;;1.70;;
29774;SDS011;16676;51.202;6.774;2023-06-04T13:08:25;5.32;;;1.92;;
29774;SDS011;16676;51.202;6.774;2023-06-04T13:12:27;3.50;;;1.80;;
29774;SDS011;16676;51.202;6.774;2023-06-04T13:16:28;2.75;;;1.77;;
29774;SDS011;16676;51.202;6.774;2023-06-04T13:20:32;3.25;;;1.45;;
29774;SDS011;16676;51.202;6.774;2023-06-04T13:24:33;3.78;;;1.70;;
29774;SDS011;16676;51.202;6.774;2023-06-04T13:28:35;2.58;;;1.60;;
29774;SDS011;16676;51.202;6.774;2023-06-04T13:32:38;4.75;;;1.63;;
29774;SDS011;16676;51.202;6.774;2023-06-04T13:36:41;3.53;;;2.00;;
29774;SDS011;16676;51.202;6.774;2023-06-04T13:40:43;1.95;;;1.58;;
29774;SDS011;16676;51.202;6.774;2023-06-04T13:44:45;5.25;;;1.63;;
29774;SDS011;16676;51.202;6.774;2023-06-04T13:48:47;6.15;;;1.73;;
29774;SDS011;16676;51.202;6.774;2023-06-04T13:52:50;4.63;;;2.00;;
29774;SDS011;16676;51.202;6.774;2023-06-04T13:56:52;2.20;;;1.48;;
29774;SDS011;16676;51.202;6.774;2023-06-04T14:00:55;4.90;;;1.70;;
29774;SDS011;16676;51.202;6.774;2023-06-04T14:04:57;3.45;;;1.35;;
29774;SDS011;16676;51.202;6.774;2023-06-04T14:09:00;2.13;;;1.70;;
29774;SDS011;16676;51.202;6.774;2023-06-04T14:13:02;3.30;;;1.48;;
29774;SDS011;16676;51.202;6.774;2023-06-04T14:17:04;6.13;;;1.60;;
29774;SDS011;16676;51.202;6.774;2023-06-04T14:21:06;3.20;;;1.40;;
29774;SDS011;16676;51.202;6.774;2023-06-04T14:25:10;2.10;;;1.50;;
29774;SDS011;16676;51.202;6.774;2023-06-04T14:29:12;3.90;;;1.67;;
29774;SDS011;16676;51.202;6.774;2023-06-04T14:33:14;3.35;;;1.98;;
29774;SDS011;16676;51.202;6.774;2023-06-04T14:37:16;2.05;;;1.60;;
29774;SDS011;16676;51.202;6.774;2023-06-04T14:41:21;5.95;;;1.63;;
29774;SDS011;16676;51.202;6.774;2023-06-04T14:45:23;3.75;;;1.63;;
29774;SDS011;16676;51.202;6.774;2023-06-04T14:49:25;5.05;;;1.70;;
29774;SDS011;16676;51.202;6.774;2023-06-04T14:53:27;6.35;;;1.42;;
29774;SDS011;16676;51.202;6.774;2023-06-04T14:57:30;5.40;;;1.70;;
29774;SDS011;16676;51.202;6.774;2023-06-04T15:01:32;3.03;;;1.83;;
29774;SDS011;16676;51.202;6.774;2023-06-04T15:05:34;6.68;;;1.63;;
29774;SDS011;16676;51.202;6.774;2023-06-04T15:09:35;5.05;;;1.85;;
29774;SDS011;16676;51.202;6.774;2023-06-04T15:13:39;3.15;;;1.52;;
29774;SDS011;16676;51.202;6.774;2023-06-04T15:17:41;2.58;;;1.55;;
29774;SDS011;16676;51.202;6.774;2023-06-04T15:21:42;3.58;;;1.75;;
29774;SDS011;16676;51.202;6.774;2023-06-04T15:25:44;2.70;;;1.70;;
29774;SDS011;16676;51.202;6.774;2023-06-04T15:29:48;6.60;;;2.38;;
29774;SDS011;16676;51.202;6.774;2023-06-04T15:33:49;4.97;;;1.80;;
29774;SDS011;16676;51.202;6.774;2023-06-04T15:37:51;3.58;;;1.67;;
29774;SDS011;16676;51.202;6.774;2023-06-04T15:41:53;3.20;;;1.70;;
29774;SDS011;16676;51.202;6.774;2023-06-04T15:45:57;2.90;;;1.52;;
29774;SDS011;16676;51.202;6.774;2023-06-04T15:49:59;4.78;;;2.00;;
29774;SDS011;16676;51.202;6.774;2023-06-04T15:54:00;3.25;;;1.35;;
29774;SDS011;16676;51.202;6.774;2023-06-04T15:58:03;2.90;;;1.50;;
29774;SDS011;16676;51.202;6.774;2023-06-04T16:02:07;3.08;;;1.60;;
29774;SDS011;16676;51.202;6.774;2023-06-04T16:06:09;4.57;;;1.67;;
29774;SDS011;16676;51.202;6.774;2023-06-04T16:10:11;6.38;;;1.52;;
29774;SDS011;16676;51.202;6.774;2023-06-04T16:14:13;6.50;;;1.67;;
29774;SDS011;16676;51.202;6.774;2023-06-04T16:18:17;4.00;;;1.98;;
29774;SDS011;16676;51.202;6.774;2023-06-04T16:22:18;6.18;;;1.83;;
29774;SDS011;16676;51.202;6.774;2023-06-04T16:26:22;6.07;;;1.65;;
29774;SDS011;16676;51.202;6.774;2023-06-04T16:30:26;9.93;;;1.80;;
29774;SDS011;16676;51.202;6.774;2023-06-04T16:34:29;4.65;;;1.80;;
29774;SDS011;16676;51.202;6.774;2023-06-04T16:38:31;3.53;;;1.70;;
29774;SDS011;16676;51.202;6.774;2023-06-04T16:42:33;3.30;;;1.60;;
29774;SDS011;16676;51.202;6.774;2023-06-04T16:46:35;4.40;;;1.33;;
29774;SDS011;16676;51.202;6.774;2023-06-04T16:50:38;4.05;;;1.60;;
29774;SDS011;16676;51.202;6.774;2023-06-04T16:54:40;2.53;;;1.60;;
29774;SDS011;16676;51.202;6.774;2023-06-04T16:58:42;4.93;;;1.90;;
29774;SDS011;16676;51.202;6.774;2023-06-04T17:02:44;4.53;;;1.83;;
29774;SDS011;16676;51.202;6.774;2023-06-04T17:06:48;3.53;;;1.83;;
29774;SDS011;16676;51.202;6.774;2023-06-04T17:10:50;3.20;;;1.70;;
29774;SDS011;16676;51.202;6.774;2023-06-04T17:14:51;2.63;;;1.80;;
29774;SDS011;16676;51.202;6.774;2023-06-04T17:18:53;5.68;;;2.38;;
29774;SDS011;16676;51.202;6.774;2023-06-04T17:22:58;7.82;;;3.00;;
29774;SDS011;16676;51.202;6.774;2023-06-04T17:27:01;15.00;;;4.13;;
29774;SDS011;16676;51.202;6.774;2023-06-04T17:31:03;22.17;;;4.78;;
29774;SDS011;16676;51.202;6.774;2023-06-04T17:35:05;14.85;;;4.70;;
29774;SDS011;16676;51.202;6.774;2023-06-04T17:39:10;12.75;;;4.20;;
29774;SDS011;16676;51.202;6.774;2023-06-04T17:43:12;10.48;;;4.53;;
29774;SDS011;16676;51.202;6.774;2023-06-04T17:47:15;12.23;;;3.80;;
29774;SDS011;16676;51.202;6.774;2023-06-04T17:51:17;17.70;;;4.55;;
29774;SDS011;16676;51.202;6.774;2023-06-04T17:55:21;6.85;;;3.17;;
29774;SDS011;16676;51.202;6.774;2023-06-04T17:59:23;4.65;;;3.00;;
29774;SDS011;16676;51.202;6.774;2023-06-04T18:03:25;9.43;;;2.83;;
29774;SDS011;16676;51.202;6.774;2023-06-04T18:07:26;8.68;;;2.70;;
29774;SDS011;16676;51.202;6.774;2023-06-04T18:11:30;5.65;;;2.60;;
29774;SDS011;16676;51.202;6.774;2023-06-04T18:15:32;3.28;;;1.92;;
29774;SDS011;16676;51.202;6.774;2023-06-04T18:19:34;6.93;;;2.28;;
29774;SDS011;16676;51.202;6.774;2023-06-04T18:23:36;4.80;;;2.60;;
29774;SDS011;16676;51.202;6.774;2023-06-04T18:27:39;4.75;;;2.10;;
29774;SDS011;16676;51.202;6.774;2023-06-04T18:31:41;3.75;;;2.30;;
29774;SDS011;16676;51.202;6.774;2023-06-04T18:35:43;2.83;;;2.20;;
29774;SDS011;16676;51.202;6.774;2023-06-04T18:39:45;7.10;;;2.42;;
29774;SDS011;16676;51.202;6.774;2023-06-04T18:43:48;4.93;;;2.55;;
29774;SDS011;16676;51.202;6.774;2023-06-04T18:47:50;2.90;;;2.03;;
29774;SDS011;16676;51.202;6.774;2023-06-04T18:51:52;3.97;;;2.30;;
29774;SDS011;16676;51.202;6.774;2023-06-04T18:55:54;5.13;;;2.25;;
29774;SDS011;16676;51.202;6.774;2023-06-04T18:59:58;6.20;;;2.10;;
29774;SDS011;16676;51.202;6.774;2023-06-04T19:04:00;3.45;;;2.00;;
29774;SDS011;16676;51.202;6.774;2023-06-04T19:08:02;5.50;;;1.85;;
29774;SDS011;16676;51.202;6.774;2023-06-04T19:12:04;5.07;;;2.25;;
29774;SDS011;16676;51.202;6.774;2023-06-04T19:16:09;4.22;;;1.92;;
29774;SDS011;16676;51.202;6.774;2023-06-04T19:20:13;4.18;;;2.10;;
29774;SDS011;16676;51.202;6.774;2023-06-04T19:24:17;3.88;;;2.28;;
29774;SDS011;16676;51.202;6.774;2023-06-04T19:28:20;5.32;;;1.98;;
29774;SDS011;16676;51.202;6.774;2023-06-04T19:32:24;3.95;;;1.70;;
29774;SDS011;16676;51.202;6.774;2023-06-04T19:36:28;2.88;;;1.95;;
29774;SDS011;16676;51.202;6.774;2023-06-04T19:40:29;2.63;;;1.58;;
29774;SDS011;16676;51.202;6.774;2023-06-04T19:44:31;2.97;;;1.98;;
29774;SDS011;16676;51.202;6.774;2023-06-04T19:48:35;4.25;;;1.90;;
29774;SDS011;16676;51.202;6.774;2023-06-04T19:52:38;2.78;;;1.67;;
29774;SDS011;16676;51.202;6.774;2023-06-04T19:56:40;5.00;;;1.90;;
29774;SDS011;16676;51.202;6.774;2023-06-04T20:00:42;3.90;;;2.08;;
29774;SDS011;16676;51.202;6.774;2023-06-04T20:04:47;3.95;;;1.98;;
29774;SDS011;16676;51.202;6.774;2023-06-04T20:08:52;6.60;;;2.20;;
29774;SDS011;16676;51.202;6.774;2023-06-04T20:12:54;7.13;;;2.30;;
29774;SDS011;16676;51.202;6.774;2023-06-04T20:16:56;2.95;;;2.08;;
29774;SDS011;16676;51.202;6.774;2023-06-04T20:20:59;4.10;;;2.22;;
29774;SDS011;16676;51.202;6.774;2023-06-04T20:25:01;2.83;;;2.03;;
29774;SDS011;16676;51.202;6.774;2023-06-04T20:29:03;4.35;;;2.13;;
29774;SDS011;16676;51.202;6.774;2023-06-04T20:33:05;5.55;;;2.28;;
29774;SDS011;16676;51.202;6.774;2023-06-04T20:37:08;4.40;;;2.30;;
29774;SDS011;16676;51.202;6.774;2023-06-04T20:41:10;4.03;;;1.90;;
29774;SDS011;16676;51.202;6.774;2023-06-04T20:45:12;3.88;;;2.15;;
29774;SDS011;16676;51.202;6.774;2023-06-04T20:49:14;5.45;;;2.10;;
29774;SDS011;16676;51.202;6.774;2023-06-04T20:53:18;3.15;;;1.92;;
29774;SDS011;16676;51.202;6.774;2023-06-04T20:57:20;2.35;;;1.60;;
29774;SDS011;16676;51.202;6.774;2023-06-04T21:01:22;2.97;;;1.90;;
29774;SDS011;16676;51.202;6.774;2023-06-04T21:05:24;3.95;;;2.15;;
29774;SDS011;16676;51.202;6.774;2023-06-04T21:09:27;6.00;;;2.22;;
29774;SDS011;16676;51.202;6.774;2023-06-04T21:13:29;4.82;;;2.20;;
29774;SDS011;16676;51.202;6.774;2023-06-04T21:17:31;5.07;;;1.92;;
29774;SDS011;16676;51.202;6.774;2023-06-04T21:21:33;2.83;;;2.00;;
29774;SDS011;16676;51.202;6.774;2023-06-04T21:25:36;2.83;;;1.80;;
29774;SDS011;16676;51.202;6.774;2023-06-04T21:29:38;3.13;;;1.92;;
29774;SDS011;16676;51.202;6.774;2023-06-04T21:33:40;3.50;;;2.22;;
29774;SDS011;16676;51.202;6.774;2023-06-04T21:37:42;4.10;;;2.03;;
29774;SDS011;16676;51.202;6.774;2023-06-04T21:41:46;5.13;;;2.00;;
29774;SDS011;16676;51.202;6.774;2023-06-04T21:45:48;2.75;;;1.70;;
29774;SDS011;16676;51.202;6.774;2023-06-04T21:49:49;2.45;;;1.65;;
29774;SDS011;16676;51.202;6.774;2023-06-04T21:53:51;3.45;;;2.00;;
29774;SDS011;16676;51.202;6.774;2023-06-04T21:57:55;4.22;;;1.80;;
29774;SDS011;16676;51.202;6.774;2023-06-04T22:01:57;5.35;;;2.00;;
29774;SDS011;16676;51.202;6.774;2023-06-04T22:05:59;3.53;;;1.92;;
29774;SDS011;16676;51.202;6.774;2023-06-04T22:10:01;5.80;;;2.20;;
29774;SDS011;16676;51.202;6.774;2023-06-04T22:14:04;5.88;;;1.70;;
29774;SDS011;16676;51.202;6.774;2023-06-04T22:18:06;4.38;;;1.80;;
29774;SDS011;16676;51.202;6.774;2023-06-04T22:22:08;4.18;;;1.60;;
29774;SDS011;16676;51.202;6.774;2023-06-04T22:26:09;2.30;;;1.48;;
29774;SDS011;16676;51.202;6.774;2023-06-04T22:30:13;3.80;;;1.52;;
29774;SDS011;16676;51.202;6.774;2023-06-04T22:34:15;3.90;;;1.80;;
29774;SDS011;16676;51.202;6.774;2023-06-04T22:38:17;4.72;;;1.85;;
29774;SDS011;16676;51.202;6.774;2023-06-04T22:42:19;4.88;;;1.92;;
29774;SDS011;16676;51.202;6.774;2023-06-04T22:46:22;4.38;;;1.80;;
29774;SDS011;16676;51.202;6.774;2023-06-04T22:50:24;2.33;;;1.70;;
29774;SDS011;16676;51.202;6.774;2023-06-04T22:54:26;5.10;;;1.88;;
29774;SDS011;16676;51.202;6.774;2023-06-04T22:58:28;8.93;;;2.22;;
29774;SDS011;16676;51.202;6.774;2023-06-04T23:02:31;4.18;;;1.85;;
29774;SDS011;16676;51.202;6.774;2023-06-04T23:06:33;2.67;;;1.58;;
29774;SDS011;16676;51.202;6.774;2023-06-04T23:10:36;3.67;;;1.88;;
29774;SDS011;16676;51.202;6.774;2023-06-04T23:14:38;3.35;;;1.80;;
29774;SDS011;16676;51.202;6.774;2023-06-04T23:18:41;3.20;;;1.83;;
29774;SDS011;16676;51.202;6.774;2023-06-04T23:22:43;2.70;;;1.70;;
29774;SDS011;16676;51.202;6.774;2023-06-04T23:26:45;4.68;;;1.85;;
29774;SDS011;16676;51.202;6.774;2023-06-04T23:30:47;2.38;;;1.70;;
29774;SDS011;16676;51.202;6.774;2023-06-04T23:34:50;3.50;;;1.75;;
29774;SDS011;16676;51.202;6.774;2023-06-04T23:38:52;2.10;;;1.45;;
29774;SDS011;16676;51.202;6.774;2023-06-04T23:42:54;3.53;;;1.80;;
29774;SDS011;16676;51.202;6.774;2023-06-04T23:46:56;4.03;;;1.85;;
29774;SDS011;16676;51.202;6.774;2023-06-04T23:50:59;4.20;;;1.80;;
29774;SDS011;16676;51.202;6.774;2023-06-04T23:55:01;4.13;;;1.80;;
29774;SDS011;16676;51.202;6.774;2023-06-04T23:59:03;5.60;;;2.20;;
